Time;durP1;ratioP1;P1;durP2;ratioP2;P2;SDS_P1;SDS_P2;PMS_P1;PMS_P2;Temp;Humidity;BMP_temperature;BMP_pressure;BME280_temperature;BME280_humidity;BME280_pressure;Samples;Min_cycle;Max_cycle;Signal;HPM_P1;HPM_P2
2021/05/24 00:03:43;;;;;;;2.97;0.93;;;14.00;52.30;;;;;;10036169;28;20068;-57
2021/05/24 00:08:34;;;;;;;1.08;0.90;;;14.00;52.30;;;;;;10036688;28;20226;-58
2021/05/24 00:13:25;;;;;;;1.65;1.05;;;13.80;52.70;;;;;;10037158;28;20086;-58
2021/05/24 00:18:16;;;;;;;2.25;1.15;;;13.70;53.10;;;;;;10036153;28;20064;-58
2021/05/24 00:23:08;;;;;;;2.00;1.42;;;13.60;53.50;;;;;;10036061;28;20037;-58
2021/05/24 00:28:00;;;;;;;2.03;1.00;;;13.50;53.60;;;;;;10036495;28;20245;-56
2021/05/24 00:32:51;;;;;;;3.85;1.63;;;13.60;53.80;;;;;;10036241;28;20051;-57
2021/05/24 00:37:42;;;;;;;4.32;1.30;;;13.50;54.00;;;;;;10036353;28;20044;-57
2021/05/24 00:42:33;;;;;;;2.42;1.00;;;13.40;54.30;;;;;;10039662;28;20715;-58
2021/05/24 00:47:24;;;;;;;4.60;1.10;;;13.20;54.70;;;;;;10043234;28;20043;-57
2021/05/24 00:52:15;;;;;;;3.03;1.13;;;13.10;54.90;;;;;;10042860;28;20359;-58
2021/05/24 00:57:06;;;;;;;2.25;1.20;;;13.00;55.30;;;;;;10042766;28;20032;-59
2021/05/24 01:01:57;;;;;;;2.42;1.40;;;13.00;55.40;;;;;;10042095;28;20439;-54
2021/05/24 01:06:49;;;;;;;2.33;0.95;;;13.00;55.30;;;;;;10040080;28;20800;-56
2021/05/24 01:11:39;;;;;;;1.83;1.33;;;13.00;55.80;;;;;;10042426;28;20037;-55
2021/05/24 01:16:31;;;;;;;2.60;1.30;;;13.00;55.80;;;;;;10041611;28;20120;-58
2021/05/24 01:21:24;;;;;;;4.38;1.60;;;13.00;55.90;;;;;;10041286;28;20056;-57
2021/05/24 01:26:16;;;;;;;2.28;1.20;;;13.00;56.20;;;;;;10041218;28;20053;-59
2021/05/24 01:31:07;;;;;;;2.40;1.30;;;13.00;56.40;;;;;;10041910;28;20037;-56
2021/05/24 01:35:58;;;;;;;3.05;1.00;;;13.00;56.20;;;;;;10037092;28;20155;-56
2021/05/24 01:40:49;;;;;;;2.13;1.10;;;12.90;56.40;;;;;;10038978;28;20051;-57
2021/05/24 01:45:42;;;;;;;2.13;1.10;;;12.90;56.70;;;;;;10039872;28;21003;-59
2021/05/24 01:50:33;;;;;;;1.52;1.00;;;12.90;56.80;;;;;;10038823;28;20049;-58
2021/05/24 01:55:24;;;;;;;1.95;0.95;;;12.80;57.00;;;;;;10038590;28;20068;-55
2021/05/24 02:00:18;;;;;;;2.00;0.90;;;12.90;56.90;;;;;;10040388;28;20600;-57
2021/05/24 02:05:10;;;;;;;2.17;1.10;;;12.90;57.10;;;;;;10038966;28;20560;-59
2021/05/24 02:10:01;;;;;;;1.10;1.00;;;12.90;57.10;;;;;;10039422;28;20128;-56
2021/05/24 02:14:52;;;;;;;1.65;1.00;;;12.90;57.10;;;;;;10039865;28;20422;-55
2021/05/24 02:19:44;;;;;;;1.65;0.73;;;12.80;57.60;;;;;;10037551;28;20055;-57
2021/05/24 02:24:35;;;;;;;2.78;1.42;;;12.80;57.70;;;;;;10039092;28;20452;-57
2021/05/24 02:29:26;;;;;;;2.15;1.02;;;12.60;57.90;;;;;;10039490;28;20047;-55
2021/05/24 02:34:17;;;;;;;1.92;1.08;;;12.70;58.10;;;;;;10036235;28;20033;-57
2021/05/24 02:39:09;;;;;;;1.83;0.90;;;12.60;58.30;;;;;;10039147;28;20076;-56
2021/05/24 02:44:00;;;;;;;2.45;1.10;;;12.60;58.20;;;;;;10037732;28;20060;-58
2021/05/24 02:48:51;;;;;;;3.95;0.98;;;12.60;58.10;;;;;;10038749;28;20041;-57
2021/05/24 02:53:41;;;;;;;1.40;0.95;;;12.70;58.10;;;;;;10036387;28;20037;-55
2021/05/24 02:58:32;;;;;;;2.35;0.65;;;12.60;58.00;;;;;;10039232;28;20025;-55
2021/05/24 03:03:24;;;;;;;0.90;0.80;;;12.50;58.10;;;;;;10036766;28;20605;-56
2021/05/24 03:08:15;;;;;;;1.17;0.50;;;12.40;58.20;;;;;;10036337;28;20036;-54
2021/05/24 03:13:06;;;;;;;1.27;0.82;;;12.40;58.20;;;;;;10036126;28;20457;-59
2021/05/24 03:17:56;;;;;;;4.18;0.88;;;12.50;58.10;;;;;;10037878;28;20041;-57
2021/05/24 03:22:47;;;;;;;2.28;1.00;;;12.40;58.20;;;;;;10036782;28;20176;-56
2021/05/24 03:27:39;;;;;;;1.67;0.80;;;12.30;58.40;;;;;;10037300;28;20062;-56
2021/05/24 03:32:30;;;;;;;1.58;0.98;;;12.20;58.50;;;;;;10037189;28;20036;-56
2021/05/24 03:37:21;;;;;;;3.33;1.30;;;12.20;59.00;;;;;;10036926;28;20029;-54
2021/05/24 03:42:11;;;;;;;1.77;1.30;;;12.20;59.00;;;;;;10034625;28;20033;-57
2021/05/24 03:47:02;;;;;;;1.45;1.02;;;12.10;59.40;;;;;;10037172;28;20731;-56
2021/05/24 03:51:53;;;;;;;1.90;1.00;;;12.10;59.60;;;;;;10036205;28;20068;-57
2021/05/24 03:56:44;;;;;;;0.82;0.68;;;12.00;59.90;;;;;;10036926;28;20040;-58
2021/05/24 04:01:37;;;;;;;1.35;0.98;;;12.00;59.90;;;;;;10036306;28;20036;-60
2021/05/24 04:06:28;;;;;;;1.38;1.27;;;12.00;60.10;;;;;;10037021;28;20060;-59
2021/05/24 04:11:19;;;;;;;1.65;1.27;;;12.00;60.20;;;;;;10036410;28;20517;-55
2021/05/24 04:16:10;;;;;;;1.42;1.00;;;12.00;60.30;;;;;;10040552;28;20033;-55
2021/05/24 04:21:02;;;;;;;4.32;1.23;;;12.00;60.60;;;;;;10043463;28;20094;-57
2021/05/24 04:25:53;;;;;;;1.42;1.13;;;11.90;60.80;;;;;;10044317;28;20665;-56
2021/05/24 04:30:44;;;;;;;2.90;1.10;;;12.00;60.70;;;;;;10043700;28;20297;-58
2021/05/24 04:35:36;;;;;;;3.95;1.02;;;11.90;60.80;;;;;;10044530;28;20455;-56
2021/05/24 04:40:27;;;;;;;4.03;1.00;;;11.90;61.10;;;;;;10043721;28;20450;-56
2021/05/24 04:45:17;;;;;;;2.28;0.95;;;12.00;61.10;;;;;;10043977;28;20067;-57
2021/05/24 04:50:10;;;;;;;1.38;0.90;;;12.00;61.40;;;;;;10043354;28;20037;-56
2021/05/24 04:55:01;;;;;;;3.60;1.30;;;11.90;61.60;;;;;;10044150;28;20037;-54
2021/05/24 04:59:52;;;;;;;1.25;0.90;;;11.90;61.70;;;;;;10041916;28;20245;-58
2021/05/24 05:04:44;;;;;;;3.70;0.90;;;12.00;61.90;;;;;;10044392;28;20111;-54
2021/05/24 05:09:35;;;;;;;1.38;1.20;;;12.10;61.60;;;;;;10042166;28;20614;-54
2021/05/24 05:14:26;;;;;;;1.50;1.00;;;12.30;61.20;;;;;;10043272;28;20438;-54
2021/05/24 05:19:16;;;;;;;2.17;1.27;;;12.30;61.40;;;;;;10042528;28;20037;-61
2021/05/24 05:24:08;;;;;;;1.35;0.90;;;12.20;61.60;;;;;;10041568;28;20637;-56
2021/05/24 05:28:58;;;;;;;2.28;1.13;;;12.30;61.50;;;;;;10041643;28;20107;-54
2021/05/24 05:33:49;;;;;;;1.27;1.17;;;12.40;61.70;;;;;;10042372;28;20033;-53
2021/05/24 05:38:40;;;;;;;1.60;1.20;;;12.30;62.00;;;;;;10039906;28;20036;-55
2021/05/24 05:43:31;;;;;;;2.88;0.95;;;12.20;62.40;;;;;;10041428;28;20376;-56
2021/05/24 05:48:21;;;;;;;1.63;1.30;;;12.40;62.00;;;;;;10041640;28;20035;-56
2021/05/24 05:53:12;;;;;;;2.30;1.33;;;12.60;61.90;;;;;;10042032;28;20128;-56
2021/05/24 05:58:03;;;;;;;1.63;1.20;;;12.70;61.70;;;;;;10041058;28;21022;-56
2021/05/24 06:02:54;;;;;;;1.20;0.95;;;12.80;61.70;;;;;;10041054;28;20086;-56
2021/05/24 06:07:44;;;;;;;1.00;0.90;;;12.70;62.00;;;;;;10041142;28;20349;-57
2021/05/24 06:12:35;;;;;;;2.25;1.10;;;12.80;61.80;;;;;;10041297;28;20104;-57
2021/05/24 06:17:26;;;;;;;2.03;0.90;;;12.90;61.70;;;;;;10039480;28;20071;-56
2021/05/24 06:22:18;;;;;;;2.38;1.15;;;13.00;61.40;;;;;;10040768;28;20037;-56
2021/05/24 06:27:08;;;;;;;2.08;1.02;;;13.10;61.20;;;;;;10040831;28;20041;-57
2021/05/24 06:31:59;;;;;;;2.15;1.00;;;13.30;61.30;;;;;;10040659;28;20443;-55
2021/05/24 06:36:50;;;;;;;1.58;1.00;;;13.50;60.80;;;;;;10037157;28;20112;-58
2021/05/24 06:41:41;;;;;;;1.95;1.10;;;13.70;60.70;;;;;;10039325;28;20104;-58
2021/05/24 06:46:31;;;;;;;2.17;1.10;;;13.70;60.40;;;;;;10039614;28;20036;-57
2021/05/24 06:51:22;;;;;;;0.95;0.75;;;13.70;60.60;;;;;;10038834;28;20056;-55
2021/05/24 06:56:14;;;;;;;1.70;0.98;;;13.90;60.40;;;;;;10039649;28;20542;-57
2021/05/24 07:01:04;;;;;;;1.25;1.10;;;14.20;60.00;;;;;;10037993;28;20054;-54
2021/05/24 07:05:56;;;;;;;0.80;0.80;;;14.30;59.80;;;;;;10039195;28;20060;-57
2021/05/24 07:10:47;;;;;;;0.85;0.73;;;14.30;59.90;;;;;;10037636;28;20037;-54
2021/05/24 07:15:38;;;;;;;2.17;1.02;;;14.60;59.60;;;;;;10039668;28;20652;-59
2021/05/24 07:20:29;;;;;;;3.33;1.42;;;14.70;59.10;;;;;;10038000;28;20033;-59
2021/05/24 07:25:20;;;;;;;2.35;1.42;;;14.80;59.00;;;;;;10037222;28;20048;-57
2021/05/24 07:30:11;;;;;;;3.17;2.17;;;14.70;59.20;;;;;;10034866;28;20029;-58
2021/05/24 07:35:03;;;;;;;1.85;1.17;;;14.80;59.00;;;;;;10035891;28;20040;-58
2021/05/24 07:39:53;;;;;;;2.67;1.77;;;15.10;58.70;;;;;;10036839;28;20033;-58
2021/05/24 07:44:44;;;;;;;3.35;1.65;;;15.30;58.30;;;;;;10036721;28;20659;-58
2021/05/24 07:49:35;;;;;;;3.10;0.80;;;15.30;58.30;;;;;;10039606;28;20044;-58
2021/05/24 07:54:26;;;;;;;1.85;1.02;;;15.40;58.20;;;;;;10046299;28;20025;-58
2021/05/24 07:59:17;;;;;;;1.65;1.00;;;15.40;58.10;;;;;;10046294;28;20033;-61
2021/05/24 08:04:08;;;;;;;1.75;1.00;;;15.60;57.60;;;;;;10045889;28;20076;-58
2021/05/24 08:08:59;;;;;;;2.30;0.98;;;15.70;57.40;;;;;;10046644;28;20727;-60
2021/05/24 08:13:50;;;;;;;1.63;1.10;;;15.90;57.00;;;;;;10044077;28;20112;-59
2021/05/24 08:18:42;;;;;;;3.20;1.80;;;16.20;56.80;;;;;;10045689;28;20032;-58
2021/05/24 08:23:33;;;;;;;1.83;0.90;;;16.40;56.60;;;;;;10042757;28;20150;-58
2021/05/24 08:28:23;;;;;;;1.23;0.98;;;16.50;56.30;;;;;;10044044;28;20038;-58
2021/05/24 08:33:14;;;;;;;2.00;0.80;;;16.60;56.20;;;;;;10044025;28;20340;-57
2021/05/24 08:38:05;;;;;;;1.30;1.10;;;16.70;56.00;;;;;;10043417;28;20036;-58
2021/05/24 08:42:58;;;;;;;2.97;1.08;;;16.90;56.10;;;;;;10043330;28;20990;-58
2021/05/24 08:47:50;;;;;;;2.05;1.08;;;17.10;55.50;;;;;;10045266;28;20426;-57
2021/05/24 08:52:42;;;;;;;4.03;0.85;;;17.30;55.00;;;;;;10043176;28;20250;-61
2021/05/24 08:57:40;;;;;;;1.90;0.68;;;17.50;54.60;;;;;;10044558;28;20329;-57
2021/05/24 09:02:31;;;;;;;1.55;0.98;;;17.80;53.90;;;;;;10041446;28;20155;-60
2021/05/24 09:07:22;;;;;;;1.52;0.85;;;17.90;53.50;;;;;;10042233;28;20094;-59
2021/05/24 09:12:20;;;;;;;2.15;1.08;;;18.10;53.00;;;;;;10042289;28;20056;-60
2021/05/24 09:17:11;;;;;;;1.80;0.65;;;18.20;52.60;;;;;;10043504;28;20404;-59
2021/05/24 09:22:04;;;;;;;2.05;0.80;;;18.10;52.20;;;;;;10040955;28;20028;-58
2021/05/24 09:27:00;;;;;;;1.63;0.77;;;18.10;51.70;;;;;;10043340;28;20045;-58
2021/05/24 09:32:11;;;;;;;1.98;0.93;;;18.30;51.00;;;;;;10042791;28;20041;-57
2021/05/24 09:37:01;;;;;;;1.40;0.75;;;18.50;50.40;;;;;;10041603;28;20275;-59
2021/05/24 09:41:52;;;;;;;1.55;0.90;;;18.70;50.20;;;;;;10041008;28;20283;-56
2021/05/24 09:46:43;;;;;;;2.88;1.10;;;18.80;49.90;;;;;;10042042;28;20226;-61
2021/05/24 09:51:38;;;;;;;1.38;0.80;;;19.10;49.60;;;;;;10042209;28;20499;-59
2021/05/24 09:56:31;;;;;;;3.90;0.80;;;19.50;48.80;;;;;;10042399;28;20040;-60
2021/05/24 10:01:29;;;;;;;0.70;0.60;;;19.50;48.70;;;;;;10041134;28;20095;-61
2021/05/24 10:06:20;;;;;;;1.00;0.75;;;19.60;48.30;;;;;;10041311;28;20134;-58
2021/05/24 10:11:11;;;;;;;1.20;1.00;;;19.60;48.20;;;;;;10039813;28;20053;-59
2021/05/24 10:16:03;;;;;;;2.38;1.30;;;19.50;48.20;;;;;;10040403;28;20040;-57
2021/05/24 10:20:55;;;;;;;3.72;1.52;;;19.40;48.20;;;;;;10040833;28;20127;-57
2021/05/24 10:25:46;;;;;;;3.05;1.10;;;19.40;48.10;;;;;;10041278;28;20056;-57
2021/05/24 10:30:37;;;;;;;1.17;0.82;;;19.40;47.60;;;;;;10040732;28;20435;-59
2021/05/24 10:35:40;;;;;;;3.70;1.30;;;19.40;47.50;;;;;;10039412;28;20048;-59
2021/05/24 10:40:44;;;;;;;1.17;0.80;;;19.20;47.40;;;;;;10041100;28;20112;-59
2021/05/24 10:45:35;;;;;;;2.30;0.80;;;18.90;47.60;;;;;;10042377;28;21396;-59
2021/05/24 10:50:29;;;;;;;0.80;0.65;;;19.00;47.60;;;;;;10041595;28;20068;-59
2021/05/24 10:55:26;;;;;;;2.55;0.98;;;19.10;47.30;;;;;;10041132;28;20466;-59
2021/05/24 11:00:16;;;;;;;0.77;0.52;;;19.20;46.90;;;;;;10043042;28;20044;-57
2021/05/24 11:05:22;;;;;;;1.20;0.70;;;19.30;46.50;;;;;;10042553;28;20503;-59
2021/05/24 11:10:13;;;;;;;1.15;0.90;;;19.50;46.10;;;;;;10043932;28;20795;-57
2021/05/24 11:15:19;;;;;;;0.90;0.40;;;19.70;45.90;;;;;;10042999;28;20036;-59
2021/05/24 11:20:32;;;;;;;2.58;0.80;;;19.90;45.20;;;;;;10045534;28;20037;-62
2021/05/24 11:26:05;;;;;;;2.25;1.17;;;20.20;44.70;;;;;;10044024;28;20060;-58
2021/05/24 11:30:37;;;;;;;2.15;1.00;;;20.40;44.60;;;;;;10046807;28;20055;-58
2021/05/24 11:35:28;;;;;;;0.63;0.47;;;20.60;44.00;;;;;;10043671;28;20044;-57
2021/05/24 11:40:19;;;;;;;1.00;0.50;;;20.90;43.40;;;;;;10043378;28;20233;-58
2021/05/24 11:45:21;;;;;;;1.02;0.85;;;20.90;42.70;;;;;;10044702;28;20037;-57
2021/05/24 11:50:12;;;;;;;1.08;0.50;;;21.00;41.70;;;;;;10044975;28;20052;-57
2021/05/24 11:55:06;;;;;;;2.85;0.68;;;21.00;42.10;;;;;;10046499;28;20036;-58
2021/05/24 11:59:56;;;;;;;3.92;0.73;;;21.10;41.50;;;;;;10029850;28;20073;-58
2021/05/24 12:04:47;;;;;;;0.70;0.60;;;21.40;41.00;;;;;;10037158;28;20041;-58
2021/05/24 12:09:50;;;;;;;2.22;0.60;;;21.60;40.60;;;;;;10037471;28;20048;-58
2021/05/24 12:14:47;;;;;;;0.60;0.50;;;22.10;39.70;;;;;;10037524;28;20111;-58
2021/05/24 12:19:39;;;;;;;0.43;0.43;;;22.60;39.60;;;;;;10036961;28;20073;-58
2021/05/24 12:24:30;;;;;;;2.45;0.50;;;23.10;39.80;;;;;;10038552;28;20040;-58
2021/05/24 12:29:46;;;;;;;1.30;0.75;;;23.60;39.10;;;;;;10037528;28;20045;-58
2021/05/24 12:34:43;;;;;;;1.30;0.75;;;24.60;37.00;;;;;;10031851;28;20260;-58
2021/05/24 12:39:38;;;;;;;1.38;0.60;;;25.20;37.60;;;;;;10044338;28;20593;-58
2021/05/24 12:44:29;;;;;;;3.35;0.63;;;25.20;37.20;;;;;;10044376;28;20037;-58
2021/05/24 12:49:22;;;;;;;1.10;0.60;;;25.00;36.80;;;;;;10043685;28;20313;-59
2021/05/24 12:54:13;;;;;;;0.70;0.60;;;25.00;36.50;;;;;;10044932;28;20332;-59
2021/05/24 12:59:20;;;;;;;0.85;0.77;;;24.50;35.60;;;;;;10043224;28;20029;-58
2021/05/24 13:04:15;;;;;;;1.15;0.60;;;24.20;35.10;;;;;;10043389;28;20053;-58
2021/05/24 13:09:19;;;;;;;1.92;0.60;;;24.20;35.60;;;;;;10044186;28;20116;-58
2021/05/24 13:14:10;;;;;;;2.63;1.00;;;24.10;34.40;;;;;;10043212;28;20280;-58
2021/05/24 13:19:44;;;;;;;2.20;0.68;;;23.10;36.10;;;;;;10043357;28;20339;-57
2021/05/24 13:30:04;;;;;;;2.10;0.70;;;21.30;36.90;;;;;;10043722;28;20163;-59
2021/05/24 13:34:55;;;;;;;1.45;1.02;;;20.30;37.90;;;;;;10043294;28;21472;-58
2021/05/24 13:40:00;;;;;;;2.25;0.80;;;19.70;39.20;;;;;;10042964;28;20071;-59
2021/05/24 13:44:51;;;;;;;1.80;0.80;;;19.50;40.30;;;;;;10043283;28;20025;-56
2021/05/24 13:49:41;;;;;;;2.00;0.60;;;19.60;40.00;;;;;;10039925;28;20197;-57
2021/05/24 13:54:32;;;;;;;3.95;1.05;;;19.70;40.50;;;;;;10042414;28;20037;-60
2021/05/24 13:59:23;;;;;;;3.65;1.30;;;19.70;40.80;;;;;;10041471;28;21150;-58
2021/05/24 14:04:16;;;;;;;2.40;0.82;;;19.50;41.60;;;;;;10040765;28;20093;-59
2021/05/24 14:09:06;;;;;;;1.67;0.85;;;19.30;42.30;;;;;;10040076;28;20079;-57
2021/05/24 14:13:57;;;;;;;3.35;0.80;;;19.10;43.10;;;;;;10041220;28;20044;-59
2021/05/24 14:18:50;;;;;;;1.38;0.73;;;18.90;44.10;;;;;;10040741;28;20638;-59
2021/05/24 14:23:40;;;;;;;1.02;0.70;;;18.80;44.60;;;;;;10039319;28;20499;-58
2021/05/24 14:28:31;;;;;;;3.42;1.10;;;18.40;45.70;;;;;;10038044;28;20051;-58
2021/05/24 14:33:23;;;;;;;3.72;1.13;;;18.10;46.60;;;;;;10038490;28;20048;-57
2021/05/24 14:38:14;;;;;;;1.25;0.93;;;18.00;47.40;;;;;;10038984;28;20777;-56
2021/05/24 14:43:05;;;;;;;2.38;1.00;;;18.10;47.60;;;;;;10039837;28;20478;-55
2021/05/24 14:47:56;;;;;;;1.20;0.82;;;18.20;47.70;;;;;;10040021;28;20470;-56
2021/05/24 14:52:48;;;;;;;3.40;0.80;;;18.00;48.30;;;;;;10039864;28;20813;-57
2021/05/24 14:57:39;;;;;;;1.13;0.70;;;18.00;48.80;;;;;;10039742;28;20517;-55
2021/05/24 15:02:30;;;;;;;1.80;0.95;;;17.90;48.60;;;;;;10036589;28;20111;-59
2021/05/24 15:07:21;;;;;;;2.33;0.88;;;17.80;48.80;;;;;;10038415;28;20106;-61
2021/05/24 15:12:11;;;;;;;1.50;0.80;;;17.90;48.40;;;;;;10038763;28;20041;-59
2021/05/24 15:17:02;;;;;;;0.70;0.68;;;17.60;49.00;;;;;;10037484;28;20829;-57
2021/05/24 15:21:53;;;;;;;3.58;0.90;;;17.40;49.40;;;;;;10039697;28;20043;-55
2021/05/24 15:26:45;;;;;;;0.85;0.57;;;17.30;49.60;;;;;;10020917;28;20105;-56
2021/05/24 15:31:36;;;;;;;0.65;0.40;;;17.10;49.90;;;;;;10036936;28;20128;-57
2021/05/24 15:36:29;;;;;;;1.88;0.70;;;17.10;49.90;;;;;;10036753;28;20116;-56
2021/05/24 15:41:20;;;;;;;1.42;0.70;;;17.00;49.80;;;;;;10036075;28;20546;-58
2021/05/24 15:46:10;;;;;;;1.17;0.57;;;17.10;49.30;;;;;;10038084;28;20443;-55
2021/05/24 15:51:01;;;;;;;2.95;0.88;;;17.30;48.90;;;;;;10038665;28;20171;-56
2021/05/24 15:55:52;;;;;;;2.92;0.60;;;17.40;48.60;;;;;;10038125;28;21043;-56
2021/05/24 16:00:43;;;;;;;1.38;0.70;;;17.60;48.10;;;;;;10038072;28;20790;-58
2021/05/24 16:05:34;;;;;;;0.98;0.63;;;17.60;48.00;;;;;;10036894;28;20053;-56
2021/05/24 16:10:25;;;;;;;1.58;0.60;;;17.40;48.00;;;;;;10039253;28;20071;-57
2021/05/24 16:15:17;;;;;;;1.38;0.90;;;17.80;47.70;;;;;;10045994;28;20430;-57
2021/05/24 16:20:08;;;;;;;1.80;0.85;;;18.00;47.40;;;;;;10045899;28;20033;-58
2021/05/24 16:25:25;;;;;;;2.78;1.40;;;17.80;47.60;;;;;;10028139;28;20039;-60
2021/05/24 16:30:16;;;;;;;1.48;0.90;;;17.70;48.00;;;;;;10045425;28;20055;-60
2021/05/24 16:35:08;;;;;;;0.95;0.82;;;17.60;47.70;;;;;;10043540;28;20067;-57
2021/05/24 16:40:01;;;;;;;2.22;0.82;;;17.70;47.50;;;;;;10045441;28;20211;-58
2021/05/24 16:44:53;;;;;;;0.73;0.60;;;17.60;47.30;;;;;;10044801;28;20108;-56
2021/05/24 16:49:44;;;;;;;0.85;0.68;;;17.70;47.10;;;;;;10045400;28;20156;-55
2021/05/24 16:54:35;;;;;;;1.50;0.75;;;17.70;46.90;;;;;;10044245;28;20361;-57
2021/05/24 16:59:26;;;;;;;2.35;1.27;;;17.80;46.70;;;;;;10045279;28;20033;-57
2021/05/24 17:04:16;;;;;;;1.20;0.90;;;17.80;46.50;;;;;;10042329;28;20053;-58
2021/05/24 17:09:07;;;;;;;1.50;0.90;;;17.90;46.30;;;;;;10043274;28;20041;-58
2021/05/24 17:14:02;;;;;;;1.35;0.73;;;18.00;46.50;;;;;;10042303;28;20498;-56
2021/05/24 17:18:54;;;;;;;1.43;0.73;;;18.00;46.50;;;;;;10042171;28;20024;-56
2021/05/24 17:23:45;;;;;;;1.80;0.90;;;17.90;46.50;;;;;;10040900;28;20516;-57
2021/05/24 17:28:35;;;;;;;4.00;1.40;;;17.80;46.80;;;;;;10042724;28;20040;-58
2021/05/24 17:33:28;;;;;;;1.30;1.00;;;18.00;47.10;;;;;;10040265;28;20045;-55
2021/05/24 17:38:19;;;;;;;2.78;1.60;;;17.90;47.10;;;;;;10040992;28;20035;-59
2021/05/24 17:43:10;;;;;;;1.70;0.95;;;23.30;40.50;;;;;;10041485;28;20033;-58
2021/05/24 17:48:02;;;;;;;3.33;1.05;;;26.70;37.30;;;;;;10041846;28;20459;-60
2021/05/24 17:52:54;;;;;;;3.58;1.30;;;25.60;39.00;;;;;;10039530;28;20127;-57
2021/05/24 17:57:45;;;;;;;1.88;0.80;;;22.60;43.30;;;;;;10041785;28;20272;-56
2021/05/24 18:02:36;;;;;;;1.08;0.93;;;20.70;45.70;;;;;;10040243;28;20419;-57
2021/05/24 18:07:26;;;;;;;1.23;0.75;;;19.80;46.30;;;;;;10039353;28;20065;-57
2021/05/24 18:12:17;;;;;;;2.00;1.00;;;19.50;46.10;;;;;;10039872;28;20028;-56
2021/05/24 18:17:08;;;;;;;4.68;1.17;;;19.10;46.30;;;;;;10041447;28;20044;-57
2021/05/24 18:21:59;;;;;;;1.65;0.80;;;18.60;46.50;;;;;;10040086;28;20029;-58
2021/05/24 18:26:49;;;;;;;2.42;1.35;;;18.10;47.10;;;;;;10041109;28;20676;-54
2021/05/24 18:31:43;;;;;;;2.58;1.08;;;17.70;47.80;;;;;;10039149;28;20040;-55
2021/05/24 18:36:34;;;;;;;3.15;0.80;;;17.60;47.90;;;;;;10040022;28;20056;-57
2021/05/24 18:41:24;;;;;;;0.73;0.40;;;17.50;48.10;;;;;;10036669;28;20368;-56
2021/05/24 18:46:15;;;;;;;1.05;0.22;;;16.40;49.40;;;;;;10039856;28;20033;-57
2021/05/24 18:51:07;;;;;;;0.93;0.75;;;15.20;52.00;;;;;;10038038;28;20036;-59
2021/05/24 18:55:58;;;;;;;3.30;0.85;;;14.40;52.80;;;;;;10040347;28;20090;-56
2021/05/24 19:00:51;;;;;;;0.30;0.30;;;13.40;55.30;;;;;;10037987;28;20098;-57
2021/05/24 19:10:52;;;;;;;2.83;1.00;;;12.70;59.80;;;;;;10038388;28;20146;-57
2021/05/24 19:15:44;;;;;;;1.88;0.60;;;12.90;59.80;;;;;;10038451;28;20021;-55
2021/05/24 19:20:35;;;;;;;1.67;1.25;;;12.90;59.80;;;;;;10038436;28;20500;-56
2021/05/24 19:25:26;;;;;;;1.25;0.50;;;12.90;60.10;;;;;;10037785;28;20331;-59
2021/05/24 19:30:20;;;;;;;0.77;0.50;;;12.60;61.20;;;;;;10036057;28;20044;-57
2021/05/24 19:35:11;;;;;;;1.17;0.52;;;12.60;61.90;;;;;;10038030;28;20241;-60
2021/05/24 19:40:08;;;;;;;2.90;1.17;;;13.00;61.00;;;;;;10039284;28;20033;-59
2021/05/24 19:44:59;;;;;;;1.40;0.60;;;13.20;60.80;;;;;;10040012;28;20059;-58
2021/05/24 19:57:46;;;;;;;0.63;0.40;;;13.40;60.80;;;;;;10020330;28;20110;-58
2021/05/24 20:26:07;;;;;;;1.27;0.50;;;14.00;60.50;;;;;;10044353;28;20564;-56
2021/05/24 20:30:57;;;;;;;0.75;0.55;;;14.00;60.60;;;;;;10042692;28;20048;-58
2021/05/24 20:35:48;;;;;;;0.90;0.60;;;14.00;60.60;;;;;;10041624;28;20068;-57
2021/05/24 20:40:39;;;;;;;1.30;0.68;;;14.00;61.00;;;;;;10040711;28;20077;-55
2021/05/24 20:45:31;;;;;;;0.88;0.47;;;13.80;61.20;;;;;;10043160;28;20474;-57
2021/05/24 20:50:22;;;;;;;1.55;0.63;;;13.80;61.40;;;;;;10043072;28;20651;-55
2021/05/24 20:55:13;;;;;;;2.00;0.82;;;13.80;61.20;;;;;;10043792;28;20029;-57
2021/05/24 21:00:07;;;;;;;3.08;0.63;;;13.90;61.30;;;;;;10042206;28;20102;-57
2021/05/24 21:04:57;;;;;;;2.83;0.80;;;13.90;61.70;;;;;;10043379;28;20131;-58
2021/05/24 21:09:49;;;;;;;2.15;1.27;;;13.80;61.70;;;;;;10042067;28;20082;-57
2021/05/24 21:14:40;;;;;;;2.08;0.80;;;13.70;62.00;;;;;;10043326;28;20033;-57
2021/05/24 21:19:31;;;;;;;1.75;0.60;;;13.60;62.20;;;;;;10040667;28;20160;-58
2021/05/24 21:24:22;;;;;;;1.55;0.70;;;13.60;62.40;;;;;;10043494;28;20184;-57
2021/05/24 21:29:13;;;;;;;0.77;0.50;;;13.60;62.20;;;;;;10041708;28;20028;-55
2021/05/24 21:39:13;;;;;;;2.25;0.70;;;13.30;62.30;;;;;;10043231;28;20143;-57
2021/05/24 21:44:04;;;;;;;2.20;0.65;;;13.40;62.00;;;;;;10042298;28;20151;-53
2021/05/24 21:48:56;;;;;;;0.80;0.80;;;13.30;62.10;;;;;;10040438;28;20068;-57
2021/05/24 21:53:48;;;;;;;0.80;0.40;;;13.30;62.00;;;;;;10041925;28;20029;-57
2021/05/24 21:58:38;;;;;;;0.82;0.68;;;13.40;61.80;;;;;;10040717;28;20025;-56
2021/05/24 22:03:29;;;;;;;0.57;0.32;;;13.30;61.70;;;;;;10041210;28;20056;-57
2021/05/24 22:08:20;;;;;;;1.15;0.57;;;13.30;61.60;;;;;;10038905;28;20645;-57
2021/05/24 22:13:11;;;;;;;1.02;0.63;;;13.20;61.40;;;;;;10041328;28;20720;-56
2021/05/24 22:18:04;;;;;;;1.75;0.50;;;13.20;61.50;;;;;;10039399;28;20143;-57
2021/05/24 22:22:59;;;;;;;1.30;0.52;;;13.20;61.40;;;;;;10040474;28;20091;-57
2021/05/24 22:27:52;;;;;;;0.93;0.40;;;13.30;61.20;;;;;;10039581;28;20163;-58
2021/05/24 22:32:43;;;;;;;0.30;0.30;;;13.20;61.10;;;;;;10040399;28;20044;-56
2021/05/24 22:37:34;;;;;;;1.90;0.50;;;13.40;61.30;;;;;;10038769;28;20323;-57
2021/05/24 22:42:26;;;;;;;1.02;0.45;;;13.30;61.10;;;;;;10039643;28;20797;-56
2021/05/24 22:47:18;;;;;;;1.73;0.35;;;13.20;61.10;;;;;;10038613;28;20071;-56
2021/05/24 22:52:10;;;;;;;0.77;0.40;;;13.20;61.60;;;;;;10039546;28;20552;-58
2021/05/24 22:57:01;;;;;;;0.93;0.50;;;13.20;60.60;;;;;;10037648;28;20721;-55
2021/05/24 23:01:52;;;;;;;0.40;0.38;;;13.10;60.10;;;;;;10039447;28;20029;-56
2021/05/24 23:06:42;;;;;;;1.45;0.35;;;13.10;59.70;;;;;;10035547;28;20055;-55
2021/05/24 23:11:33;;;;;;;0.68;0.40;;;13.20;58.60;;;;;;10039052;28;20098;-57
2021/05/24 23:16:25;;;;;;;1.70;0.50;;;13.10;58.40;;;;;;10038140;28;20094;-56
2021/05/24 23:21:16;;;;;;;0.52;0.35;;;13.10;58.00;;;;;;10038449;28;20044;-56
2021/05/24 23:26:07;;;;;;;1.38;0.60;;;13.10;57.70;;;;;;10038241;28;20036;-56
2021/05/24 23:30:57;;;;;;;0.60;0.40;;;13.10;57.50;;;;;;10039349;28;20440;-53
2021/05/24 23:35:48;;;;;;;0.30;0.30;;;13.00;57.70;;;;;;10035465;28;20037;-55
2021/05/24 23:40:39;;;;;;;0.20;0.20;;;13.00;57.40;;;;;;10037937;28;20638;-58
2021/05/24 23:45:31;;;;;;;0.28;0.28;;;13.00;57.50;;;;;;10034555;28;20044;-55
2021/05/24 23:50:22;;;;;;;1.38;0.45;;;13.00;57.60;;;;;;10037437;28;20077;-57
2021/05/24 23:55:14;;;;;;;3.15;0.50;;;12.90;57.70;;;;;;10037370;28;20037;-58
